Ana Sayfa
METAR-TAF:

METAR-TAF

Havaalanları :

Moundou, Çad

Enlem: 08-37N, Boylam: 016-04E, yükseklik: 428 m

Güncel hava durumu gözlemi

Rapor saat 09:00 UTC de 2 saat ve 31 dakika önce yapıldı.
Rüzgar batıdan 4 kt
Sıcaklık 32°C
Nem 49%
Basınç 1013 hPa
Görüş mesafesi 10 km veya daha fazla
1500 m altında bulut yok ve kümülonimbus yok

METAR: FTTD 240900Z 28004KT CAVOK 32/20 Q1013

Saat: 12:31 (11:31 UTC)


TAF: eksik

4.000'den fazla havaalanı için hava durumu gözlemleri ve tahminleri (METAR ve TAF raporları).

Kullanılabilir istasyonlar harita üzerinde sarı ve kırmızı noktalarla gösterilir.

İstasyonun adını görmek için fareyi noktanın üzerinde gezdirin.

Sonrasında hava gözlem ve tahminlerini görmek için tıklayın.

Haritayı değiştirmek için: yaklaştırmak için siyah artı işaretli yeşil düğmeye ve uzaklaştırmak için de eksi işaretli düğmeye hızla tıklayın; bitişik haritalar için yeşil okları kullanın.


METAR-TAF: